Página principal
METAR-TAF:

METAR-TAF

Aeroportos :

Aeroporto Internacional do Kuwait

Kuwait, Kuwait

latitude: 29-13N, longitude: 047-59E, altura: 55 m

Observação actual do tempo

O boletim foi feito há 34 minutos, às 15:00 UTC
Vento 11 kt de oes-noroeste
Temperatura 44°C
Humidade 10%
Pressão 998 hPa
Visibilidade 10 km ou mais
sem nuvens abaixo de 1500 metros e sem cumulonimbus

METAR: OKBK 161500Z 30011KT CAVOK 44/05 Q0998 NOSIG

Hora: 18:34 (15:34 UTC)

Previsão

O boletim foi feito há 4 horas e 49 minutos, às 10:45 UTC
Previsão válida de 16 às 12 UTC a 17 às 18 UTC
Vento 12 kt de nor-noroeste
Visibilidade: 8000 m
Céu limpo
Temporariamente
de 16 às 12 UTC a 16 às 18 UTC
Vento 3 kt com direcção variável

TAF: OKBK 161045Z 1612/1718 34012KT 8000 SKC TEMPO 1612/1618 VRB03KT

Observações e previsões do tempo de mais de 4000 aeroportos (mensagens METAR e TAF).

As estações disponíveis são os pontos amarelos e vermelhos sobre o mapa.

Mova o rato sobre o mapa para ver o nome da estação.

Depois clique no ponto para visualizar as observações e previsões meteorológicas.

Para alterar o mapa : clique nos botões verdes com uma cruz preta para aumentar o zoom; no botão verde com uma pitada de zoom; ou nas setas verdes para mapas adjacentes.


METAR-TAF: